createdAt,value
2023-02-15T00:00:30.854Z,75.55
2023-02-15T00:01:15.487Z,77.54
2023-02-15T00:02:00.527Z,69.46
2023-02-15T00:02:45.828Z,72.57
2023-02-15T00:03:30.774Z,74.35
2023-02-15T00:04:15.468Z,75.42
2023-02-15T00:05:00.378Z,76.24
2023-02-15T00:05:46.131Z,77.54
2023-02-15T00:06:30.781Z,77.54
2023-02-15T00:07:15.739Z,77.54
2023-02-15T00:08:00.974Z,75.55
2023-02-15T00:08:46.252Z,75.55
2023-02-15T00:09:30.488Z,70.58
2023-02-15T00:10:16.056Z,69.39
2023-02-15T00:11:01.191Z,71.58
2023-02-15T00:11:46.620Z,73.43
2023-02-15T00:12:30.944Z,76.55
2023-02-15T00:13:16.112Z,75.55
2023-02-15T00:14:00.933Z,77.54
2023-02-15T00:14:46.551Z,77.40
2023-02-15T00:15:31.253Z,76.55
2023-02-15T00:16:16.281Z,77.32
2023-02-15T00:17:01.261Z,79.53
2023-02-15T00:17:46.750Z,79.53
2023-02-15T00:18:31.625Z,80.52
2023-02-15T00:19:16.238Z,78.53
2023-02-15T00:20:01.753Z,77.54
2023-02-15T00:20:47.486Z,77.54
2023-02-15T00:21:31.859Z,78.53
2023-02-15T00:22:16.866Z,78.53
2023-02-15T00:23:02.037Z,75.55
2023-02-15T00:23:47.185Z,82.51
2023-02-15T00:24:32.070Z,81.52
2023-02-15T00:25:18.156Z,85.49
2023-02-15T00:26:02.252Z,89.47
2023-02-15T00:26:46.899Z,85.49
2023-02-15T00:27:32.047Z,78.31
2023-02-15T00:28:16.974Z,83.50
2023-02-15T00:29:02.407Z,81.52
2023-02-15T00:29:47.239Z,82.51
2023-02-15T00:30:32.418Z,83.50
2023-02-15T00:31:17.435Z,85.49
2023-02-15T00:32:02.459Z,86.49
2023-02-15T00:32:47.453Z,85.49
2023-02-15T00:33:32.502Z,87.48
2023-02-15T00:34:17.311Z,84.50
2023-02-15T00:35:02.466Z,76.55
2023-02-15T00:35:47.617Z,81.52
2023-02-15T00:36:32.334Z,82.51
2023-02-15T00:37:17.788Z,82.51
2023-02-15T00:38:02.473Z,83.50
2023-02-15T00:38:48.044Z,81.52
2023-02-15T00:39:32.974Z,80.52
2023-02-15T00:40:18.113Z,77.54
2023-02-15T00:41:02.975Z,70.58
2023-02-15T00:41:47.964Z,65.61
2023-02-15T00:42:33.147Z,66.61
2023-02-15T00:43:18.144Z,67.60
2023-02-15T00:44:02.982Z,68.59
2023-02-15T00:44:48.451Z,68.59
2023-02-15T00:45:32.930Z,69.59
2023-02-15T00:46:18.613Z,67.60
2023-02-15T00:47:03.329Z,67.60
2023-02-15T00:47:48.197Z,68.59
2023-02-15T00:48:33.934Z,69.59
2023-02-15T00:49:18.837Z,69.59
2023-02-15T00:50:03.553Z,66.61
2023-02-15T00:50:48.489Z,66.61
2023-02-15T00:51:33.900Z,66.61
2023-02-15T00:52:18.707Z,68.59
2023-02-15T00:53:03.558Z,67.60
2023-02-15T00:53:48.995Z,64.62
2023-02-15T00:54:33.850Z,66.61
2023-02-15T00:55:21.218Z,66.61
2023-02-15T00:56:04.227Z,64.43
2023-02-15T00:56:49.150Z,65.61
2023-02-15T00:57:33.409Z,65.61
2023-02-15T00:58:19.240Z,65.61
2023-02-15T00:59:04.329Z,69.64
2023-02-15T00:59:49.081Z,67.65
2023-02-15T01:00:34.874Z,65.66
2023-02-15T01:01:19.188Z,65.66
2023-02-15T01:02:04.435Z,65.66
2023-02-15T01:02:49.500Z,64.67
2023-02-15T01:03:35.047Z,64.67
2023-02-15T01:04:19.654Z,63.67
2023-02-15T01:05:04.618Z,65.66
2023-02-15T01:05:49.716Z,63.67
2023-02-15T01:06:34.838Z,68.65
2023-02-15T01:07:19.654Z,67.15
2023-02-15T01:08:04.740Z,67.70
2023-02-15T01:08:49.540Z,68.69
2023-02-15T01:09:35.116Z,67.70
2023-02-15T01:10:19.972Z,68.69
2023-02-15T01:11:04.920Z,67.70
2023-02-15T01:11:50.127Z,68.69
2023-02-15T01:12:34.775Z,68.69
2023-02-15T01:13:20.427Z,69.69
2023-02-15T01:14:05.116Z,68.69
2023-02-15T01:14:50.442Z,68.69
2023-02-15T01:15:35.324Z,68.69
2023-02-15T01:16:20.209Z,67.70
2023-02-15T01:17:05.279Z,68.59
2023-02-15T01:17:50.325Z,67.70
2023-02-15T01:18:35.299Z,69.69
2023-02-15T01:19:21.474Z,72.72
2023-02-15T01:20:05.599Z,67.74
2023-02-15T01:20:50.784Z,67.74
2023-02-15T01:21:36.652Z,67.74
2023-02-15T01:22:20.659Z,27.83
2023-02-15T01:23:05.613Z,42.67
2023-02-15T01:23:51.083Z,42.67
2023-02-15T01:24:35.903Z,41.84
2023-02-15T01:25:20.901Z,51.80
2023-02-15T01:26:05.710Z,52.79
2023-02-15T01:26:50.903Z,48.81
2023-02-15T01:27:36.054Z,52.79
2023-02-15T01:28:20.937Z,54.79
2023-02-15T01:29:05.965Z,56.78
2023-02-15T01:29:51.359Z,53.79
2023-02-15T01:30:36.440Z,45.82
2023-02-15T01:31:21.358Z,48.75
2023-02-15T01:32:06.383Z,47.81
2023-02-15T01:32:51.355Z,48.81
2023-02-15T01:33:36.502Z,49.56
2023-02-15T01:34:21.364Z,50.74
2023-02-15T01:35:06.708Z,47.81
2023-02-15T01:35:51.505Z,47.81
2023-02-15T01:36:36.416Z,44.83
2023-02-15T01:37:21.863Z,44.83
2023-02-15T01:38:06.927Z,28.89
2023-02-15T01:38:52.248Z,28.89
2023-02-15T01:39:37.019Z,63.79
2023-02-15T01:40:21.936Z,61.76
2023-02-15T01:41:06.967Z,63.75
2023-02-15T01:41:52.150Z,68.73
2023-02-15T01:42:36.751Z,75.71
2023-02-15T01:43:22.340Z,75.71
2023-02-15T01:44:07.294Z,78.69
2023-02-15T01:44:52.256Z,81.68
2023-02-15T01:45:37.304Z,81.68
2023-02-15T01:46:22.638Z,80.69
2023-02-15T01:47:07.368Z,79.59
2023-02-15T01:47:52.691Z,82.68
2023-02-15T01:48:37.327Z,80.58
2023-02-15T01:49:22.588Z,79.69
2023-02-15T01:50:07.799Z,77.60
2023-02-15T01:50:52.585Z,74.71
2023-02-15T01:51:37.943Z,74.71
2023-02-15T01:52:23.182Z,74.71
2023-02-15T01:53:07.979Z,75.71
2023-02-15T01:54:38.432Z,73.71
2023-02-15T01:55:23.223Z,45.82
2023-02-15T01:56:08.405Z,38.85
2023-02-15T01:56:52.940Z,34.86
2023-02-15T01:57:37.795Z,30.88
2023-02-15T01:58:22.963Z,53.79
2023-02-15T01:59:08.212Z,49.81
2023-02-15T01:59:53.376Z,49.81
2023-02-15T02:00:38.255Z,33.87
2023-02-15T02:01:23.484Z,53.79
2023-02-15T02:02:08.586Z,56.78
2023-02-15T02:02:53.635Z,52.79
2023-02-15T02:03:38.455Z,53.79
2023-02-15T02:04:24.090Z,51.69
2023-02-15T02:05:10.432Z,51.69
2023-02-15T02:05:53.617Z,64.67
2023-02-15T02:06:38.660Z,60.76
2023-02-15T02:07:23.738Z,46.76
2023-02-15T02:08:08.928Z,63.75
2023-02-15T02:08:53.951Z,62.76
2023-02-15T02:09:38.804Z,73.71
2023-02-15T02:10:24.168Z,58.70
2023-02-15T02:11:09.117Z,54.72
2023-02-15T02:11:54.581Z,54.72
2023-02-15T02:12:39.127Z,55.75
2023-02-15T02:13:24.309Z,60.76
2023-02-15T02:14:09.166Z,70.72
2023-02-15T02:14:54.605Z,62.76
2023-02-15T02:15:39.117Z,63.75
2023-02-15T02:16:24.355Z,60.76
2023-02-15T02:17:09.469Z,57.78
2023-02-15T02:17:54.940Z,54.79
2023-02-15T02:18:39.795Z,54.79
2023-02-15T02:19:24.637Z,53.79
2023-02-15T02:20:10.368Z,59.77
2023-02-15T02:20:54.817Z,60.76
2023-02-15T02:21:40.058Z,62.68
2023-02-15T02:22:24.766Z,60.76
2023-02-15T02:23:09.932Z,57.70
2023-02-15T02:23:54.890Z,52.79
2023-02-15T02:24:40.422Z,52.79
2023-02-15T02:25:24.707Z,48.81
2023-02-15T02:26:10.360Z,47.81
2023-02-15T02:26:55.104Z,49.81
2023-02-15T02:27:40.591Z,53.79
2023-02-15T02:28:25.375Z,47.81
2023-02-15T02:29:10.331Z,46.82
2023-02-15T02:29:55.085Z,47.75
2023-02-15T02:30:40.793Z,43.83
2023-02-15T02:31:25.324Z,42.83
2023-02-15T02:32:10.634Z,42.83
2023-02-15T02:32:55.485Z,44.83
2023-02-15T02:33:40.812Z,43.83
2023-02-15T02:34:25.459Z,46.82
2023-02-15T02:35:10.533Z,58.77
2023-02-15T02:35:55.948Z,56.78
2023-02-15T02:36:41.003Z,65.74
2023-02-15T02:37:26.334Z,58.77
2023-02-15T02:38:10.852Z,56.75
2023-02-15T02:38:56.725Z,56.75
2023-02-15T02:39:41.260Z,53.79
2023-02-15T02:40:25.914Z,52.69
2023-02-15T02:41:11.370Z,52.69
2023-02-15T02:41:55.817Z,52.82
2023-02-15T02:42:42.616Z,52.82
2023-02-15T02:43:26.151Z,16.44
2023-02-15T02:44:11.842Z,65.74
2023-02-15T02:44:56.440Z,65.74
2023-02-15T02:45:41.224Z,64.75
2023-02-15T02:46:26.412Z,61.76
2023-02-15T02:47:11.414Z,61.76
2023-02-15T02:47:56.380Z,43.83
2023-02-15T02:48:41.470Z,42.83
2023-02-15T02:49:26.571Z,44.83
2023-02-15T02:50:11.506Z,44.83
2023-02-15T02:50:56.909Z,44.83
2023-02-15T02:51:41.854Z,44.83
2023-02-15T02:52:26.581Z,44.83
2023-02-15T02:53:11.751Z,44.83
2023-02-15T02:53:57.041Z,44.83
2023-02-15T02:54:41.879Z,44.83
2023-02-15T02:55:26.944Z,44.83
2023-02-15T02:56:11.957Z,60.80
2023-02-15T02:56:56.847Z,55.78
2023-02-15T02:57:42.424Z,55.78
2023-02-15T02:58:27.249Z,55.78
2023-02-15T02:59:12.217Z,55.78
2023-02-15T02:59:57.173Z,55.78
2023-02-15T03:00:42.434Z,55.78
2023-02-15T03:01:27.287Z,48.81
2023-02-15T03:02:12.336Z,48.81
2023-02-15T03:02:57.611Z,48.81
2023-02-15T03:03:42.868Z,48.81
2023-02-15T03:04:27.026Z,56.81
2023-02-15T03:05:13.015Z,56.81
2023-02-15T03:05:57.735Z,56.81
2023-02-15T03:06:42.811Z,56.81
2023-02-15T03:07:27.814Z,56.81
2023-02-15T03:08:12.791Z,56.81
2023-02-15T03:08:57.926Z,56.81
2023-02-15T03:09:43.314Z,56.81
2023-02-15T03:10:28.977Z,56.81
2023-02-15T03:11:12.550Z,56.81
2023-02-15T03:11:57.973Z,56.81
2023-02-15T03:12:42.993Z,56.81
2023-02-15T03:13:28.421Z,56.81
2023-02-15T03:14:12.838Z,60.80
2023-02-15T03:14:57.582Z,56.78
2023-02-15T03:15:42.808Z,59.77
2023-02-15T03:16:28.077Z,43.83
2023-02-15T03:17:13.019Z,48.81
2023-02-15T03:17:57.818Z,46.82
2023-02-15T03:18:43.691Z,46.82
2023-02-15T03:19:28.583Z,46.82
2023-02-15T03:20:13.578Z,42.86
2023-02-15T03:20:58.599Z,42.86
2023-02-15T03:21:43.810Z,42.86
2023-02-15T03:22:28.461Z,42.86
2023-02-15T03:23:13.624Z,42.86
2023-02-15T03:23:58.569Z,42.86
2023-02-15T03:24:43.935Z,42.86
2023-02-15T03:25:28.814Z,42.86
2023-02-15T03:26:14.019Z,42.86
2023-02-15T03:26:59.042Z,42.86
2023-02-15T03:27:43.864Z,42.86
2023-02-15T03:28:28.939Z,42.86
2023-02-15T03:29:13.961Z,42.86
2023-02-15T03:29:58.809Z,42.86
2023-02-15T03:30:44.387Z,42.86
2023-02-15T03:31:29.545Z,42.86
2023-02-15T03:32:14.308Z,42.86
2023-02-15T03:32:59.233Z,42.86
2023-02-15T03:33:44.773Z,42.86
2023-02-15T03:34:28.975Z,42.86
2023-02-15T03:35:14.620Z,42.86
2023-02-15T03:35:59.601Z,42.86
2023-02-15T03:36:44.851Z,42.86
2023-02-15T03:37:29.403Z,42.86
2023-02-15T03:38:14.495Z,42.86
2023-02-15T03:38:59.697Z,42.86
2023-02-15T03:39:44.602Z,42.86
2023-02-15T03:40:29.793Z,42.86
2023-02-15T03:41:14.496Z,42.86
2023-02-15T03:41:59.721Z,42.86
2023-02-15T03:42:45.018Z,42.86
2023-02-15T03:43:29.949Z,42.86
2023-02-15T03:44:14.909Z,42.86
2023-02-15T03:44:59.760Z,42.86
2023-02-15T03:45:45.114Z,42.86
2023-02-15T03:46:30.072Z,42.86
2023-02-15T03:47:15.148Z,42.86
2023-02-15T03:48:00.080Z,42.86
2023-02-15T03:48:44.929Z,1.02
2023-02-15T03:49:29.776Z,2.04
2023-02-15T03:50:15.035Z,2.04
2023-02-15T03:50:59.891Z,2.24
2023-02-15T03:51:48.134Z,2.24
2023-02-15T03:52:30.686Z,2.24
2023-02-15T03:53:15.668Z,2.12
2023-02-15T03:53:59.799Z,1.49
2023-02-15T03:54:45.613Z,1.49
2023-02-15T03:55:29.919Z,2.16
2023-02-15T03:56:14.875Z,2.24
2023-02-15T03:57:00.438Z,3.36
2023-02-15T03:57:45.705Z,2.32
2023-02-15T03:58:30.540Z,2.39
2023-02-15T03:59:15.734Z,11.26
2023-02-15T04:00:00.482Z,34.84
2023-02-15T04:00:46.013Z,9.27
2023-02-15T04:01:30.501Z,3.14
2023-02-15T04:02:15.656Z,3.04
2023-02-15T04:03:00.639Z,3.04
2023-02-15T04:03:46.258Z,2.99
2023-02-15T04:04:31.026Z,1.42
2023-02-15T04:05:16.006Z,2.28
2023-02-15T04:06:01.452Z,2.78
2023-02-15T04:06:46.609Z,35.79
2023-02-15T04:07:30.921Z,3.80
2023-02-15T04:08:15.992Z,8.29
2023-02-15T04:09:00.887Z,4.63
2023-02-15T04:09:46.555Z,4.25
2023-02-15T04:10:30.849Z,7.37
2023-02-15T04:11:16.113Z,16.07
2023-02-15T04:12:01.174Z,5.73
2023-02-15T04:12:46.533Z,11.89
2023-02-15T04:13:31.171Z,8.04
2023-02-15T04:14:16.127Z,20.52
2023-02-15T04:15:01.088Z,11.89
2023-02-15T04:15:46.353Z,7.81
2023-02-15T04:16:31.351Z,4.56
2023-02-15T04:17:16.510Z,41.81
2023-02-15T04:18:01.352Z,42.81
2023-02-15T04:18:46.871Z,3.80
2023-02-15T04:19:31.324Z,11.56
2023-02-15T04:20:16.569Z,3.33
2023-02-15T04:21:01.842Z,4.08
2023-02-15T04:21:50.714Z,4.08
2023-02-15T04:22:32.060Z,47.79
2023-02-15T04:23:16.906Z,43.80
2023-02-15T04:24:01.766Z,43.80
2023-02-15T04:24:46.760Z,3.80
2023-02-15T04:25:31.562Z,50.77
2023-02-15T04:26:16.957Z,54.75
2023-02-15T04:27:02.183Z,54.75
2023-02-15T04:27:47.094Z,66.70
2023-02-15T04:28:31.988Z,48.71
2023-02-15T04:29:17.293Z,21.90
2023-02-15T04:30:01.931Z,42.81
2023-02-15T04:30:47.123Z,57.74
2023-02-15T04:31:32.615Z,59.73
2023-02-15T04:32:17.202Z,54.75
2023-02-15T04:33:02.228Z,59.73
2023-02-15T04:33:47.377Z,57.74
2023-02-15T04:34:32.942Z,55.75
2023-02-15T04:35:17.736Z,62.63
2023-02-15T04:36:02.905Z,55.75
2023-02-15T04:36:47.513Z,58.65
2023-02-15T04:37:33.010Z,61.72
2023-02-15T04:38:17.748Z,62.72
2023-02-15T04:39:02.258Z,63.71
2023-02-15T04:39:48.251Z,62.72
2023-02-15T04:40:32.740Z,56.75
2023-02-15T04:41:17.737Z,52.69
2023-02-15T04:42:02.957Z,54.75
2023-02-15T04:42:47.604Z,50.77
2023-02-15T04:43:32.817Z,52.76
2023-02-15T04:44:17.879Z,60.73
2023-02-15T04:45:02.944Z,62.72
2023-02-15T04:45:48.152Z,64.62
2023-02-15T04:46:33.026Z,61.72
2023-02-15T04:47:18.451Z,59.65
2023-02-15T04:48:03.425Z,60.73
2023-02-15T04:48:48.035Z,55.75
2023-02-15T04:49:32.974Z,49.78
2023-02-15T04:50:18.369Z,57.74
2023-02-15T04:51:03.373Z,56.75
2023-02-15T04:51:48.244Z,58.74
2023-02-15T04:52:33.744Z,60.73
2023-02-15T04:53:18.811Z,65.70
2023-02-15T04:54:03.605Z,67.70
2023-02-15T04:54:48.823Z,66.70
2023-02-15T04:55:33.716Z,65.70
2023-02-15T04:56:18.747Z,67.70
2023-02-15T04:57:04.023Z,68.69
2023-02-15T04:57:48.977Z,67.70
2023-02-15T04:58:34.561Z,67.60
2023-02-15T04:59:18.792Z,60.73
2023-02-15T05:00:03.677Z,51.77
2023-02-15T05:00:48.925Z,49.78
2023-02-15T05:01:34.059Z,49.78
2023-02-15T05:02:19.276Z,55.75
2023-02-15T05:03:04.283Z,55.67
2023-02-15T05:03:49.255Z,56.75
2023-02-15T05:04:34.375Z,59.73
2023-02-15T05:05:19.192Z,57.74
2023-02-15T05:06:04.344Z,55.75
2023-02-15T05:06:49.253Z,56.75
2023-02-15T05:07:34.503Z,61.72
2023-02-15T05:08:19.260Z,63.71
2023-02-15T05:09:04.654Z,62.72
2023-02-15T05:09:49.963Z,62.72
2023-02-15T05:10:34.285Z,67.70
2023-02-15T05:11:19.594Z,68.69
2023-02-15T05:12:04.546Z,67.70
2023-02-15T05:12:49.696Z,67.70
2023-02-15T05:13:34.817Z,69.69
2023-02-15T05:14:19.863Z,69.69
2023-02-15T05:15:04.962Z,67.70
2023-02-15T05:15:49.915Z,67.70
2023-02-15T05:16:35.303Z,67.70
2023-02-15T05:17:19.956Z,64.71
2023-02-15T05:18:05.273Z,64.71
2023-02-15T05:18:50.043Z,66.61
2023-02-15T05:19:35.200Z,67.70
2023-02-15T05:20:20.066Z,67.70
2023-02-15T05:21:04.884Z,66.70
2023-02-15T05:21:50.428Z,67.70
2023-02-15T05:22:35.134Z,67.70
2023-02-15T05:23:20.595Z,67.70
2023-02-15T05:24:05.537Z,66.70
2023-02-15T05:24:50.596Z,66.61
2023-02-15T05:25:35.557Z,67.70
2023-02-15T05:26:20.850Z,68.59
2023-02-15T05:27:05.519Z,64.71
2023-02-15T05:27:50.544Z,64.62
2023-02-15T05:28:35.788Z,65.70
2023-02-15T05:29:20.840Z,65.70
2023-02-15T05:30:05.848Z,65.70
2023-02-15T05:30:51.057Z,65.70
2023-02-15T05:31:36.351Z,62.72
2023-02-15T05:32:21.205Z,66.61
2023-02-15T05:33:06.220Z,59.69
2023-02-15T05:33:51.089Z,54.72
2023-02-15T05:34:36.245Z,58.70
2023-02-15T05:35:21.195Z,63.67
2023-02-15T05:36:06.589Z,64.67
2023-02-15T05:36:51.011Z,66.66
2023-02-15T05:37:37.279Z,66.66
2023-02-15T05:38:21.651Z,69.64
2023-02-15T05:39:06.715Z,67.65
2023-02-15T05:39:51.414Z,68.65
2023-02-15T05:40:36.712Z,69.64
2023-02-15T05:41:21.771Z,65.66
2023-02-15T05:42:06.912Z,65.66
2023-02-15T05:42:52.340Z,65.66
2023-02-15T05:43:37.185Z,65.49
2023-02-15T05:44:22.223Z,55.71
2023-02-15T05:45:07.122Z,60.69
2023-02-15T05:45:51.919Z,66.66
2023-02-15T05:46:37.114Z,69.64
2023-02-15T05:47:22.355Z,63.67
2023-02-15T05:48:07.246Z,64.67
2023-02-15T05:48:52.264Z,65.66
2023-02-15T05:49:37.475Z,62.68
2023-02-15T05:50:22.420Z,62.68
2023-02-15T05:51:07.477Z,62.68
2023-02-15T05:51:52.426Z,63.67
2023-02-15T05:52:37.396Z,62.68
2023-02-15T05:53:22.770Z,65.66
2023-02-15T05:54:07.707Z,62.68
2023-02-15T05:54:52.656Z,63.67
2023-02-15T05:55:37.887Z,66.66
2023-02-15T05:56:22.985Z,66.66
2023-02-15T05:57:07.929Z,61.68
2023-02-15T05:57:52.889Z,62.68
2023-02-15T05:58:38.009Z,62.68
2023-02-15T05:59:22.870Z,61.68
2023-02-15T06:00:08.368Z,61.68
2023-02-15T06:00:53.158Z,60.69
2023-02-15T06:01:38.278Z,67.65
2023-02-15T06:02:23.422Z,69.64
2023-02-15T06:03:08.866Z,69.64
2023-02-15T06:03:53.409Z,68.65
2023-02-15T06:04:38.563Z,62.68
2023-02-15T06:05:23.332Z,60.69
2023-02-15T06:06:08.415Z,60.69
2023-02-15T06:06:53.359Z,60.69
2023-02-15T06:07:38.308Z,67.65
2023-02-15T06:08:23.918Z,70.46
2023-02-15T06:09:08.427Z,70.46
2023-02-15T06:09:53.688Z,63.67
2023-02-15T06:10:38.511Z,47.75
2023-02-15T06:11:23.944Z,50.74
2023-02-15T06:12:08.804Z,70.63
2023-02-15T06:12:54.002Z,67.48
2023-02-15T06:13:39.218Z,73.62
2023-02-15T06:14:24.371Z,65.49
2023-02-15T06:15:08.859Z,70.46
2023-02-15T06:15:53.912Z,69.64
2023-02-15T06:16:39.374Z,67.65
2023-02-15T06:17:24.008Z,66.66
2023-02-15T06:18:09.095Z,69.64
2023-02-15T06:18:53.927Z,65.66
2023-02-15T06:19:38.933Z,71.63
2023-02-15T06:20:24.298Z,67.65
2023-02-15T06:21:09.459Z,72.62
2023-02-15T06:21:54.077Z,73.62
2023-02-15T06:22:39.335Z,69.64
2023-02-15T06:23:24.382Z,73.62
2023-02-15T06:24:09.214Z,66.66
2023-02-15T06:24:54.341Z,73.62
2023-02-15T06:25:40.122Z,73.62
2023-02-15T06:26:25.265Z,71.63
2023-02-15T06:27:09.279Z,76.41
2023-02-15T06:27:54.261Z,71.63
2023-02-15T06:28:39.869Z,71.63
2023-02-15T06:29:24.772Z,71.63
2023-02-15T06:30:10.232Z,66.66
2023-02-15T06:30:56.549Z,14.57
2023-02-15T06:31:40.342Z,70.68
2023-02-15T06:32:25.198Z,70.63
2023-02-15T06:33:10.168Z,69.69
2023-02-15T06:33:55.036Z,67.70
2023-02-15T06:34:40.280Z,74.66
2023-02-15T06:35:25.155Z,74.66
2023-02-15T06:36:10.673Z,76.66
2023-02-15T06:36:55.174Z,74.56
2023-02-15T06:37:40.426Z,74.56
2023-02-15T06:38:25.831Z,81.63
2023-02-15T06:39:10.812Z,82.63
2023-02-15T06:39:57.847Z,82.63
2023-02-15T06:40:41.112Z,79.64
2023-02-15T06:41:25.992Z,79.64
2023-02-15T06:42:10.465Z,73.67
2023-02-15T06:42:55.455Z,78.65
2023-02-15T06:43:41.084Z,84.62
2023-02-15T06:44:26.168Z,83.62
2023-02-15T06:45:10.969Z,84.62
2023-02-15T06:45:56.176Z,84.62
2023-02-15T06:46:41.202Z,85.62
2023-02-15T06:47:26.444Z,83.50
2023-02-15T06:48:11.124Z,85.62
2023-02-15T06:48:55.693Z,79.53
2023-02-15T06:49:41.070Z,79.64
2023-02-15T06:50:26.117Z,84.62
2023-02-15T06:51:11.177Z,83.62
2023-02-15T06:51:56.020Z,82.63
2023-02-15T06:52:41.746Z,79.64
2023-02-15T06:53:27.058Z,76.66
2023-02-15T06:54:12.171Z,76.66
2023-02-15T06:54:56.473Z,72.67
2023-02-15T06:55:41.633Z,79.64
2023-02-15T06:56:27.061Z,80.64
2023-02-15T06:57:12.750Z,82.63
2023-02-15T06:57:56.708Z,80.64
2023-02-15T06:58:41.862Z,86.61
2023-02-15T06:59:26.902Z,88.60
2023-02-15T07:00:12.712Z,88.60
2023-02-15T07:00:56.713Z,85.62
2023-02-15T07:01:42.323Z,83.62
2023-02-15T07:02:27.173Z,78.65
2023-02-15T07:03:12.333Z,79.64
2023-02-15T07:03:57.767Z,82.63
2023-02-15T07:04:42.654Z,90.59
2023-02-15T07:05:27.144Z,87.61
2023-02-15T07:06:12.298Z,86.49
2023-02-15T07:06:57.608Z,85.62
2023-02-15T07:07:42.310Z,87.48
2023-02-15T07:08:28.104Z,86.61
2023-02-15T07:09:13.138Z,87.61
2023-02-15T07:09:57.225Z,82.63
2023-02-15T07:10:42.853Z,61.72
2023-02-15T07:11:27.861Z,57.74
2023-02-15T07:12:12.955Z,60.73
2023-02-15T07:12:57.911Z,72.67
2023-02-15T07:13:43.237Z,72.67
2023-02-15T07:14:29.048Z,44.80
2023-02-15T07:15:13.602Z,44.80
2023-02-15T07:15:58.358Z,43.80
2023-02-15T07:16:43.939Z,43.80
2023-02-15T07:17:35.367Z,50.77
2023-02-15T07:18:13.536Z,43.80
2023-02-15T07:18:58.253Z,63.75
2023-02-15T07:19:43.824Z,44.80
2023-02-15T07:20:28.160Z,39.82
2023-02-15T07:21:13.417Z,39.82
2023-02-15T07:21:58.499Z,43.80
2023-02-15T07:22:44.309Z,43.80
2023-02-15T07:23:29.107Z,43.80
2023-02-15T07:24:13.873Z,45.73
2023-02-15T07:24:58.955Z,45.79
2023-02-15T07:25:44.376Z,45.79
2023-02-15T07:26:29.200Z,45.79
2023-02-15T07:27:14.715Z,45.79
2023-02-15T07:27:59.493Z,45.79
2023-02-15T07:28:44.803Z,45.79
2023-02-15T07:29:29.289Z,45.79
2023-02-15T07:30:14.874Z,45.79
2023-02-15T07:30:59.481Z,45.79
2023-02-15T07:31:46.469Z,45.79
2023-02-15T07:32:29.856Z,45.79
2023-02-15T07:33:14.538Z,45.79
2023-02-15T07:34:02.234Z,45.79
2023-02-15T07:34:45.612Z,45.79
2023-02-15T07:35:30.547Z,45.79
2023-02-15T07:36:15.171Z,45.79
2023-02-15T07:36:59.889Z,45.79
2023-02-15T07:37:45.141Z,45.79
2023-02-15T07:38:30.451Z,45.79
2023-02-15T07:39:15.298Z,45.79
2023-02-15T07:40:00.116Z,45.79
2023-02-15T07:40:45.117Z,45.79
2023-02-15T07:41:31.945Z,45.79
2023-02-15T07:42:17.078Z,45.79
2023-02-15T07:43:00.369Z,45.79
2023-02-15T07:43:47.860Z,45.79
2023-02-15T07:44:32.364Z,45.79
2023-02-15T07:45:17.587Z,45.79
2023-02-15T07:46:02.860Z,45.79
2023-02-15T07:46:47.802Z,45.79
2023-02-15T07:47:32.172Z,45.79
2023-02-15T07:48:15.602Z,45.79
2023-02-15T07:49:02.713Z,45.79
2023-02-15T07:49:45.965Z,45.79
2023-02-15T07:50:30.911Z,45.79
2023-02-15T07:51:15.787Z,45.79
2023-02-15T07:52:00.774Z,45.79
2023-02-15T07:52:45.931Z,45.79
2023-02-15T07:53:30.641Z,2.78
2023-02-15T07:54:15.919Z,2.08
2023-02-15T07:55:00.877Z,2.72
2023-02-15T07:55:46.435Z,2.12
2023-02-15T07:56:32.702Z,28.85
2023-02-15T07:57:15.889Z,2.78
2023-02-15T07:58:00.887Z,36.83
2023-02-15T07:58:47.070Z,3.40
2023-02-15T07:59:31.301Z,2.88
2023-02-15T08:00:16.376Z,3.47
2023-02-15T08:01:01.364Z,2.04
2023-02-15T08:01:47.124Z,2.04
2023-02-15T08:02:31.748Z,2.00
2023-02-15T08:03:16.389Z,2.78
2023-02-15T08:04:01.993Z,14.15
2023-02-15T08:04:46.603Z,1.25
2023-02-15T08:05:31.442Z,1.33
2023-02-15T08:06:18.772Z,1.33
2023-02-15T08:07:03.735Z,1.33
2023-02-15T08:07:50.716Z,1.33
2023-02-15T08:08:32.800Z,1.33
2023-02-15T08:09:16.626Z,2.08
2023-02-15T08:10:01.687Z,2.83
2023-02-15T08:10:47.258Z,3.92
2023-02-15T08:11:31.789Z,31.86
2023-02-15T08:12:18.995Z,31.86
2023-02-15T08:13:02.126Z,35.84
2023-02-15T08:13:49.328Z,35.84
2023-02-15T08:14:34.385Z,35.84
2023-02-15T08:15:18.022Z,35.84
2023-02-15T08:16:02.720Z,35.84
2023-02-15T08:16:47.302Z,30.86
2023-02-15T08:17:32.471Z,33.85
2023-02-15T08:18:19.767Z,33.85
2023-02-15T08:19:02.770Z,33.85
2023-02-15T08:19:49.796Z,33.85
2023-02-15T08:20:32.784Z,31.86
2023-02-15T08:21:17.850Z,34.84
2023-02-15T08:22:02.591Z,35.84
2023-02-15T08:22:48.094Z,36.83
2023-02-15T08:23:33.010Z,37.83
2023-02-15T08:24:18.021Z,36.83
2023-02-15T08:25:03.134Z,36.83
2023-02-15T08:25:48.586Z,36.83
2023-02-15T08:26:33.503Z,38.83
2023-02-15T08:27:18.305Z,38.83
2023-02-15T08:28:03.286Z,38.83
2023-02-15T08:28:48.105Z,45.79
2023-02-15T08:29:33.696Z,43.80
2023-02-15T08:30:18.739Z,44.80
2023-02-15T08:31:03.715Z,45.79
2023-02-15T08:31:48.842Z,45.79
2023-02-15T08:32:33.298Z,48.78
2023-02-15T08:33:18.641Z,48.78
2023-02-15T08:34:03.948Z,39.82
2023-02-15T08:34:48.753Z,41.81
2023-02-15T08:35:33.869Z,43.80
2023-02-15T08:36:18.872Z,41.81
2023-02-15T08:37:03.923Z,43.80
2023-02-15T08:37:49.125Z,43.80
2023-02-15T08:38:33.839Z,51.77
2023-02-15T08:39:19.349Z,51.77
2023-02-15T08:40:04.573Z,50.77
2023-02-15T08:40:48.921Z,53.76
2023-02-15T08:41:34.511Z,54.68
2023-02-15T08:42:19.580Z,46.79
2023-02-15T08:43:04.278Z,47.79
2023-02-15T08:43:49.261Z,42.81
2023-02-15T08:44:35.177Z,42.81
2023-02-15T08:45:20.374Z,42.81
2023-02-15T08:46:05.126Z,42.81
2023-02-15T08:46:50.319Z,42.81
2023-02-15T08:47:34.951Z,42.81
2023-02-15T08:48:20.185Z,42.81
2023-02-15T08:49:04.960Z,42.81
2023-02-15T08:49:49.928Z,55.75
2023-02-15T08:50:35.054Z,51.73
2023-02-15T08:51:20.355Z,51.73
2023-02-15T08:52:05.387Z,51.73
2023-02-15T08:52:50.124Z,47.79
2023-02-15T08:53:35.623Z,47.79
2023-02-15T08:54:20.650Z,47.79
2023-02-15T08:55:05.598Z,47.79
2023-02-15T08:55:50.643Z,47.79
2023-02-15T08:56:35.877Z,47.79
2023-02-15T08:57:23.101Z,47.79
2023-02-15T08:58:05.838Z,47.79
2023-02-15T08:58:50.868Z,47.79
2023-02-15T08:59:40.785Z,47.79
2023-02-15T09:00:25.268Z,47.79
2023-02-15T09:01:08.221Z,47.79
2023-02-15T09:01:53.154Z,47.79
2023-02-15T09:02:36.427Z,47.79
2023-02-15T09:03:21.517Z,47.79
2023-02-15T09:04:08.309Z,47.79
2023-02-15T09:04:53.374Z,47.79
2023-02-15T09:05:38.215Z,47.79
2023-02-15T09:06:21.796Z,47.79
2023-02-15T09:07:10.180Z,47.79
2023-02-15T09:07:51.716Z,47.79
2023-02-15T09:08:36.613Z,47.79
2023-02-15T09:09:21.587Z,47.79
2023-02-15T09:10:07.105Z,47.79
2023-02-15T09:10:53.982Z,47.79
2023-02-15T09:11:38.705Z,47.79
2023-02-15T09:12:25.467Z,47.79
2023-02-15T09:13:06.803Z,38.70
2023-02-15T09:13:54.063Z,38.70
2023-02-15T09:14:37.107Z,38.70
2023-02-15T09:15:23.588Z,38.70
2023-02-15T09:16:07.115Z,38.70
2023-02-15T09:16:54.685Z,38.70
2023-02-15T09:17:36.764Z,35.81
2023-02-15T09:18:22.667Z,35.81
2023-02-15T09:19:07.429Z,35.81
2023-02-15T09:19:52.779Z,35.81
2023-02-15T09:20:37.517Z,35.81
2023-02-15T09:21:22.722Z,35.81
2023-02-15T09:22:07.454Z,35.81
2023-02-15T09:22:54.292Z,35.81
2023-02-15T09:23:38.068Z,35.81
2023-02-15T09:24:22.585Z,35.81
2023-02-15T09:25:08.782Z,35.81
2023-02-15T09:25:52.829Z,35.81
2023-02-15T09:26:37.947Z,35.81
2023-02-15T09:27:23.010Z,35.81
2023-02-15T09:28:07.549Z,35.81
2023-02-15T09:28:55.143Z,35.81
2023-02-15T09:29:40.929Z,35.81
2023-02-15T09:30:23.305Z,35.81
2023-02-15T09:31:08.081Z,35.81
2023-02-15T09:31:54.472Z,2.00
2023-02-15T09:32:38.133Z,28.85
2023-02-15T09:33:23.350Z,9.08
2023-02-15T09:34:07.906Z,9.08
2023-02-15T09:34:53.069Z,30.84
2023-02-15T09:35:38.429Z,30.84
2023-02-15T09:36:23.183Z,30.84
2023-02-15T09:37:08.312Z,29.77
2023-02-15T09:37:53.392Z,31.84
2023-02-15T09:38:38.432Z,29.85
2023-02-15T09:39:23.626Z,23.88
2023-02-15T09:40:08.538Z,24.87
2023-02-15T09:40:53.565Z,22.88
2023-02-15T09:41:38.666Z,19.85
2023-02-15T09:42:23.742Z,3.86